Rubi, Spain
Current Conditions -  °F | °C
As of 5:30 AM on Saturday 01 Nov 2014 (Local Time) from LEBL Reporting Station
Scattered Clouds Scattered Clouds  
Wind Chill: 61°   Ceiling: Unl
Heat Index: 61°   Visibility: 6mi
Dew Point: 57°   Wind: 1mph
Humidity: 88%   Direction: NA
Pressure: 30.21"   Gusts: NA
Location:  41.49°N, 2.03°E
Report Text: LEBL 010430Z VRB01KT 9000 SCT033 16/14 Q1023 NOSIG
Loading
Personal Weather Stations






























Interactive Weather Map
Tropical Storm Tracking
New forecast layout! Learn more

10-Day Weather Forecast

Advertisements
Track Severe Weather on mobile